sensor_id;sensor_type;location;lat;lon;timestamp;pressure;altitude;pressure_sealevel;temperature;humidity
5595;BME280;1003;48.002;7.788;2023-03-18T00:00:15;98541.84;;;12.01;100.00
5595;BME280;1003;48.002;7.788;2023-03-18T00:02:44;98541.56;;;11.77;100.00
5595;BME280;1003;48.002;7.788;2023-03-18T00:05:13;98543.72;;;11.59;100.00
5595;BME280;1003;48.002;7.788;2023-03-18T00:07:40;98535.38;;;11.56;100.00
5595;BME280;1003;48.002;7.788;2023-03-18T00:10:10;98533.34;;;11.71;100.00
5595;BME280;1003;48.002;7.788;2023-03-18T00:12:38;98538.84;;;11.51;100.00
5595;BME280;1003;48.002;7.788;2023-03-18T00:15:07;98537.47;;;11.39;100.00
5595;BME280;1003;48.002;7.788;2023-03-18T00:17:36;98541.53;;;11.45;100.00
5595;BME280;1003;48.002;7.788;2023-03-18T00:20:06;98541.31;;;11.18;100.00
5595;BME280;1003;48.002;7.788;2023-03-18T00:22:36;98541.59;;;11.06;100.00
5595;BME280;1003;48.002;7.788;2023-03-18T00:25:06;98541.78;;;10.97;100.00
5595;BME280;1003;48.002;7.788;2023-03-18T00:27:34;98542.56;;;11.00;100.00
5595;BME280;1003;48.002;7.788;2023-03-18T00:30:03;98543.66;;;10.89;100.00
5595;BME280;1003;48.002;7.788;2023-03-18T00:32:31;98549.41;;;10.92;100.00
5595;BME280;1003;48.002;7.788;2023-03-18T00:35:00;98554.72;;;10.80;100.00
5595;BME280;1003;48.002;7.788;2023-03-18T00:37:28;98552.28;;;10.77;100.00
5595;BME280;1003;48.002;7.788;2023-03-18T00:39:57;98559.75;;;10.82;100.00
5595;BME280;1003;48.002;7.788;2023-03-18T00:42:29;98553.25;;;10.71;100.00
5595;BME280;1003;48.002;7.788;2023-03-18T00:45:02;98554.06;;;10.70;100.00
5595;BME280;1003;48.002;7.788;2023-03-18T00:47:29;98559.16;;;10.69;100.00
5595;BME280;1003;48.002;7.788;2023-03-18T00:49:56;98561.53;;;10.75;100.00
5595;BME280;1003;48.002;7.788;2023-03-18T00:52:25;98559.16;;;10.69;100.00
5595;BME280;1003;48.002;7.788;2023-03-18T00:54:52;98561.75;;;10.64;100.00
5595;BME280;1003;48.002;7.788;2023-03-18T00:57:19;98551.53;;;10.73;100.00
5595;BME280;1003;48.002;7.788;2023-03-18T00:59:46;98554.03;;;10.73;100.00
5595;BME280;1003;48.002;7.788;2023-03-18T01:02:13;98552.81;;;10.91;100.00
5595;BME280;1003;48.002;7.788;2023-03-18T01:04:41;98551.13;;;10.92;100.00
5595;BME280;1003;48.002;7.788;2023-03-18T01:07:09;98540.72;;;11.07;100.00
5595;BME280;1003;48.002;7.788;2023-03-18T01:09:38;98542.03;;;11.23;100.00
5595;BME280;1003;48.002;7.788;2023-03-18T01:12:07;98547.09;;;11.22;100.00
5595;BME280;1003;48.002;7.788;2023-03-18T01:14:35;98550.69;;;11.12;100.00
5595;BME280;1003;48.002;7.788;2023-03-18T01:17:03;98548.34;;;11.04;100.00
5595;BME280;1003;48.002;7.788;2023-03-18T01:19:30;98549.19;;;11.03;100.00
5595;BME280;1003;48.002;7.788;2023-03-18T01:21:59;98537.75;;;10.90;100.00
5595;BME280;1003;48.002;7.788;2023-03-18T01:24:26;98531.00;;;10.92;100.00
5595;BME280;1003;48.002;7.788;2023-03-18T01:26:55;98530.56;;;11.12;100.00
5595;BME280;1003;48.002;7.788;2023-03-18T01:29:22;98530.47;;;11.16;100.00
5595;BME280;1003;48.002;7.788;2023-03-18T01:31:50;98530.47;;;11.16;100.00
5595;BME280;1003;48.002;7.788;2023-03-18T01:34:17;98531.72;;;10.97;100.00
5595;BME280;1003;48.002;7.788;2023-03-18T01:36:44;98523.34;;;10.98;100.00
5595;BME280;1003;48.002;7.788;2023-03-18T01:39:13;98526.69;;;10.98;100.00
5595;BME280;1003;48.002;7.788;2023-03-18T01:41:42;98534.47;;;10.88;100.00
5595;BME280;1003;48.002;7.788;2023-03-18T01:44:15;98540.56;;;10.76;100.00
5595;BME280;1003;48.002;7.788;2023-03-18T01:46:43;98535.06;;;10.60;100.00
5595;BME280;1003;48.002;7.788;2023-03-18T01:49:16;98530.94;;;10.56;100.00
5595;BME280;1003;48.002;7.788;2023-03-18T01:51:51;98521.22;;;10.80;100.00
5595;BME280;1003;48.002;7.788;2023-03-18T01:54:22;98516.78;;;10.91;100.00
5595;BME280;1003;48.002;7.788;2023-03-18T01:56:51;98513.06;;;11.09;100.00
5595;BME280;1003;48.002;7.788;2023-03-18T01:59:25;98522.88;;;11.19;100.00
5595;BME280;1003;48.002;7.788;2023-03-18T02:01:57;98511.50;;;11.01;100.00
5595;BME280;1003;48.002;7.788;2023-03-18T02:04:33;98520.84;;;10.98;100.00
5595;BME280;1003;48.002;7.788;2023-03-18T02:07:03;98518.63;;;10.84;100.00
5595;BME280;1003;48.002;7.788;2023-03-18T02:09:30;98522.53;;;10.57;100.00
5595;BME280;1003;48.002;7.788;2023-03-18T02:11:58;98515.78;;;10.59;100.00
5595;BME280;1003;48.002;7.788;2023-03-18T02:14:28;98513.25;;;10.61;100.00
5595;BME280;1003;48.002;7.788;2023-03-18T02:17:00;98518.78;;;10.76;100.00
5595;BME280;1003;48.002;7.788;2023-03-18T02:19:45;98515.78;;;10.61;100.00
5595;BME280;1003;48.002;7.788;2023-03-18T02:22:26;98514.22;;;10.55;100.00
5595;BME280;1003;48.002;7.788;2023-03-18T02:25:08;98517.34;;;10.65;100.00
5595;BME280;1003;48.002;7.788;2023-03-18T02:27:43;98513.03;;;10.71;100.00
5595;BME280;1003;48.002;7.788;2023-03-18T02:30:17;98508.59;;;10.83;100.00
5595;BME280;1003;48.002;7.788;2023-03-18T02:32:48;98506.13;;;10.80;100.00
5595;BME280;1003;48.002;7.788;2023-03-18T02:35:16;98513.13;;;10.65;100.00
5595;BME280;1003;48.002;7.788;2023-03-18T02:37:45;98515.56;;;10.71;100.00
5595;BME280;1003;48.002;7.788;2023-03-18T02:40:15;98517.28;;;10.68;100.00
5595;BME280;1003;48.002;7.788;2023-03-18T02:42:46;98516.75;;;10.54;100.00
5595;BME280;1003;48.002;7.788;2023-03-18T02:45:29;98511.81;;;10.49;100.00
5595;BME280;1003;48.002;7.788;2023-03-18T02:48:03;98512.84;;;10.40;100.00
5595;BME280;1003;48.002;7.788;2023-03-18T02:50:32;98516.00;;;10.48;100.00
5595;BME280;1003;48.002;7.788;2023-03-18T02:53:02;98519.47;;;10.43;100.00
5595;BME280;1003;48.002;7.788;2023-03-18T02:55:30;98519.47;;;10.43;100.00
5595;BME280;1003;48.002;7.788;2023-03-18T02:57:58;98518.84;;;10.32;100.00
5595;BME280;1003;48.002;7.788;2023-03-18T03:00:25;98523.59;;;10.47;100.00
5595;BME280;1003;48.002;7.788;2023-03-18T03:02:53;98514.94;;;10.60;100.00
5595;BME280;1003;48.002;7.788;2023-03-18T03:05:20;98512.91;;;10.77;100.00
5595;BME280;1003;48.002;7.788;2023-03-18T03:07:47;98510.41;;;10.76;100.00
5595;BME280;1003;48.002;7.788;2023-03-18T03:10:14;98513.41;;;10.92;100.00
5595;BME280;1003;48.002;7.788;2023-03-18T03:12:41;98513.34;;;10.95;100.00
5595;BME280;1003;48.002;7.788;2023-03-18T03:15:11;98514.22;;;10.92;100.00
5595;BME280;1003;48.002;7.788;2023-03-18T03:17:38;98517.47;;;10.99;100.00
5595;BME280;1003;48.002;7.788;2023-03-18T03:20:08;98508.13;;;11.04;100.00
5595;BME280;1003;48.002;7.788;2023-03-18T03:22:35;98514.94;;;10.99;100.00
5595;BME280;1003;48.002;7.788;2023-03-18T03:25:04;98516.66;;;10.97;100.00
5595;BME280;1003;48.002;7.788;2023-03-18T03:27:31;98512.66;;;10.88;100.00
5595;BME280;1003;48.002;7.788;2023-03-18T03:29:58;98516.38;;;10.70;100.00
5595;BME280;1003;48.002;7.788;2023-03-18T03:32:27;98518.13;;;10.68;100.00
5595;BME280;1003;48.002;7.788;2023-03-18T03:34:54;98520.63;;;10.68;100.00
5595;BME280;1003;48.002;7.788;2023-03-18T03:37:21;98521.44;;;10.69;100.00
5595;BME280;1003;48.002;7.788;2023-03-18T03:39:48;98514.00;;;10.66;100.00
5595;BME280;1003;48.002;7.788;2023-03-18T03:42:16;98522.31;;;10.68;100.00
5595;BME280;1003;48.002;7.788;2023-03-18T03:44:44;98515.38;;;10.79;100.00
5595;BME280;1003;48.002;7.788;2023-03-18T03:47:12;98522.69;;;10.90;100.00
5595;BME280;1003;48.002;7.788;2023-03-18T03:49:41;98529.16;;;10.60;100.00
5595;BME280;1003;48.002;7.788;2023-03-18T03:52:08;98535.97;;;10.56;100.00
5595;BME280;1003;48.002;7.788;2023-03-18T03:54:36;98529.31;;;10.54;100.00
5595;BME280;1003;48.002;7.788;2023-03-18T03:57:03;98523.84;;;10.35;100.00
5595;BME280;1003;48.002;7.788;2023-03-18T03:59:30;98521.97;;;10.44;100.00
5595;BME280;1003;48.002;7.788;2023-03-18T04:01:57;98516.19;;;10.41;100.00
5595;BME280;1003;48.002;7.788;2023-03-18T04:04:25;98516.91;;;10.46;100.00
5595;BME280;1003;48.002;7.788;2023-03-18T04:06:54;98520.50;;;10.33;100.00
5595;BME280;1003;48.002;7.788;2023-03-18T04:09:22;98524.09;;;10.19;100.00
5595;BME280;1003;48.002;7.788;2023-03-18T04:11:50;98518.84;;;10.32;100.00
5595;BME280;1003;48.002;7.788;2023-03-18T04:14:18;98525.22;;;10.48;100.00
5595;BME280;1003;48.002;7.788;2023-03-18T04:16:45;98524.53;;;10.41;100.00
5595;BME280;1003;48.002;7.788;2023-03-18T04:19:12;98532.41;;;10.24;100.00
5595;BME280;1003;48.002;7.788;2023-03-18T04:21:39;98529.81;;;10.28;100.00
5595;BME280;1003;48.002;7.788;2023-03-18T04:24:09;98528.50;;;10.08;100.00
5595;BME280;1003;48.002;7.788;2023-03-18T04:26:37;98539.59;;;9.95;100.00
5595;BME280;1003;48.002;7.788;2023-03-18T04:29:04;98524.53;;;9.95;100.00
5595;BME280;1003;48.002;7.788;2023-03-18T04:31:31;98536.63;;;10.21;100.00
5595;BME280;1003;48.002;7.788;2023-03-18T04:33:58;98527.75;;;10.03;100.00
5595;BME280;1003;48.002;7.788;2023-03-18T04:36:26;98525.72;;;10.23;100.00
5595;BME280;1003;48.002;7.788;2023-03-18T04:38:54;98537.72;;;10.08;100.00
5595;BME280;1003;48.002;7.788;2023-03-18T04:41:23;98539.22;;;10.16;100.00
5595;BME280;1003;48.002;7.788;2023-03-18T04:43:50;98538.41;;;10.14;100.00
5595;BME280;1003;48.002;7.788;2023-03-18T04:46:17;98540.09;;;10.14;100.00
5595;BME280;1003;48.002;7.788;2023-03-18T04:48:44;98538.41;;;10.14;100.00
5595;BME280;1003;48.002;7.788;2023-03-18T04:51:11;98537.34;;;10.28;100.00
5595;BME280;1003;48.002;7.788;2023-03-18T04:53:39;98539.91;;;10.26;100.00
5595;BME280;1003;48.002;7.788;2023-03-18T04:56:07;98532.41;;;10.21;100.00
5595;BME280;1003;48.002;7.788;2023-03-18T04:58:35;98534.97;;;10.20;100.00
5595;BME280;1003;48.002;7.788;2023-03-18T05:01:02;98532.66;;;10.09;100.00
5595;BME280;1003;48.002;7.788;2023-03-18T05:03:30;98521.94;;;9.99;100.00
5595;BME280;1003;48.002;7.788;2023-03-18T05:05:57;98527.91;;;9.94;100.00
5595;BME280;1003;48.002;7.788;2023-03-18T05:08:24;98530.41;;;9.95;100.00
5595;BME280;1003;48.002;7.788;2023-03-18T05:10:52;98532.25;;;9.84;100.00
5595;BME280;1003;48.002;7.788;2023-03-18T05:13:19;98528.84;;;9.88;100.00
5595;BME280;1003;48.002;7.788;2023-03-18T05:15:47;98533.03;;;9.88;100.00
5595;BME280;1003;48.002;7.788;2023-03-18T05:18:14;98539.59;;;9.95;100.00
5595;BME280;1003;48.002;7.788;2023-03-18T05:20:42;98536.25;;;9.96;100.00
5595;BME280;1003;48.002;7.788;2023-03-18T05:23:10;98537.84;;;10.00;100.00
5595;BME280;1003;48.002;7.788;2023-03-18T05:25:37;98540.38;;;9.98;100.00
5595;BME280;1003;48.002;7.788;2023-03-18T05:28:04;98536.47;;;9.84;100.00
5595;BME280;1003;48.002;7.788;2023-03-18T05:30:31;98535.81;;;9.72;100.00
5595;BME280;1003;48.002;7.788;2023-03-18T05:33:00;98530.03;;;9.67;100.00
5595;BME280;1003;48.002;7.788;2023-03-18T05:35:28;98544.75;;;9.38;100.00
5595;BME280;1003;48.002;7.788;2023-03-18T05:37:55;98538.03;;;9.40;100.00
5595;BME280;1003;48.002;7.788;2023-03-18T05:40:22;98544.38;;;9.61;100.00
5595;BME280;1003;48.002;7.788;2023-03-18T05:42:49;98543.41;;;9.69;100.00
5595;BME280;1003;48.002;7.788;2023-03-18T05:45:16;98551.78;;;9.68;100.00
5595;BME280;1003;48.002;7.788;2023-03-18T05:47:44;98541.66;;;9.75;100.00
5595;BME280;1003;48.002;7.788;2023-03-18T05:50:12;98546.75;;;9.68;100.00
5595;BME280;1003;48.002;7.788;2023-03-18T05:52:39;98546.81;;;9.65;100.00
5595;BME280;1003;48.002;7.788;2023-03-18T05:55:11;98547.59;;;9.69;100.00
5595;BME280;1003;48.002;7.788;2023-03-18T05:57:38;98549.41;;;9.61;100.00
5595;BME280;1003;48.002;7.788;2023-03-18T06:00:08;98549.94;;;9.80;100.00
5595;BME280;1003;48.002;7.788;2023-03-18T06:02:35;98551.25;;;9.99;100.00
5595;BME280;1003;48.002;7.788;2023-03-18T06:05:03;98555.25;;;10.09;100.00
5595;BME280;1003;48.002;7.788;2023-03-18T06:07:31;98553.53;;;10.13;100.00
5595;BME280;1003;48.002;7.788;2023-03-18T06:09:59;98563.41;;;10.20;100.00
5595;BME280;1003;48.002;7.788;2023-03-18T06:12:26;98564.16;;;10.29;100.00
5595;BME280;1003;48.002;7.788;2023-03-18T06:14:53;98565.84;;;10.28;100.00
5595;BME280;1003;48.002;7.788;2023-03-18T06:17:21;98568.06;;;10.42;100.00
5595;BME280;1003;48.002;7.788;2023-03-18T06:19:48;98560.22;;;10.57;100.00
5595;BME280;1003;48.002;7.788;2023-03-18T06:22:16;98572.09;;;10.91;100.00
5595;BME280;1003;48.002;7.788;2023-03-18T06:24:44;98571.09;;;11.35;100.00
5595;BME280;1003;48.002;7.788;2023-03-18T06:27:11;98577.63;;;11.79;100.00
5595;BME280;1003;48.002;7.788;2023-03-18T06:29:38;98584.66;;;12.33;100.00
5595;BME280;1003;48.002;7.788;2023-03-18T06:32:06;98580.13;;;12.76;95.04
5595;BME280;1003;48.002;7.788;2023-03-18T06:34:34;98578.56;;;13.00;92.54
5595;BME280;1003;48.002;7.788;2023-03-18T06:37:02;98584.88;;;13.43;87.69
5595;BME280;1003;48.002;7.788;2023-03-18T06:39:29;98591.06;;;13.85;84.33
5595;BME280;1003;48.002;7.788;2023-03-18T06:41:58;98583.22;;;13.93;81.33
5595;BME280;1003;48.002;7.788;2023-03-18T06:44:25;98591.34;;;13.76;80.37
5595;BME280;1003;48.002;7.788;2023-03-18T06:46:52;98592.16;;;13.52;82.33
5595;BME280;1003;48.002;7.788;2023-03-18T06:49:19;98588.81;;;13.23;82.35
5595;BME280;1003;48.002;7.788;2023-03-18T06:51:46;98586.50;;;13.16;80.92
5595;BME280;1003;48.002;7.788;2023-03-18T06:54:14;98595.47;;;12.96;81.75
5595;BME280;1003;48.002;7.788;2023-03-18T06:56:41;98600.88;;;12.84;84.29
5595;BME280;1003;48.002;7.788;2023-03-18T06:59:11;98595.75;;;12.87;85.22
5595;BME280;1003;48.002;7.788;2023-03-18T07:01:38;98595.94;;;12.81;85.71
5595;BME280;1003;48.002;7.788;2023-03-18T07:04:06;98598.66;;;12.73;86.19
5595;BME280;1003;48.002;7.788;2023-03-18T07:06:33;98596.19;;;12.72;87.03
5595;BME280;1003;48.002;7.788;2023-03-18T07:09:01;98595.75;;;12.87;85.92
5595;BME280;1003;48.002;7.788;2023-03-18T07:11:28;98603.41;;;12.84;86.25
5595;BME280;1003;48.002;7.788;2023-03-18T07:13:55;98607.81;;;12.77;85.87
5595;BME280;1003;48.002;7.788;2023-03-18T07:16:24;98608.56;;;12.79;86.60
5595;BME280;1003;48.002;7.788;2023-03-18T07:18:51;98611.78;;;12.84;85.51
5595;BME280;1003;48.002;7.788;2023-03-18T07:21:18;98613.38;;;12.88;85.53
5595;BME280;1003;48.002;7.788;2023-03-18T07:23:45;98615.88;;;12.88;86.44
5595;BME280;1003;48.002;7.788;2023-03-18T07:26:12;98613.56;;;13.10;86.09
5595;BME280;1003;48.002;7.788;2023-03-18T07:28:39;98625.28;;;13.13;85.83
5595;BME280;1003;48.002;7.788;2023-03-18T07:31:06;98621.59;;;13.25;86.81
5595;BME280;1003;48.002;7.788;2023-03-18T07:33:35;98628.03;;;13.33;85.32
5595;BME280;1003;48.002;7.788;2023-03-18T07:36:02;98629.91;;;13.55;83.58
5595;BME280;1003;48.002;7.788;2023-03-18T07:38:29;98628.47;;;13.48;82.69
5595;BME280;1003;48.002;7.788;2023-03-18T07:40:56;98633.44;;;13.51;82.42
5595;BME280;1003;48.002;7.788;2023-03-18T07:43:23;98633.50;;;13.48;81.22
5595;BME280;1003;48.002;7.788;2023-03-18T07:45:50;98627.59;;;13.49;81.79
5595;BME280;1003;48.002;7.788;2023-03-18T07:48:17;98630.44;;;13.38;81.61
5595;BME280;1003;48.002;7.788;2023-03-18T07:50:46;98633.81;;;13.91;83.09
5595;BME280;1003;48.002;7.788;2023-03-18T07:53:13;98630.50;;;14.16;78.83
5595;BME280;1003;48.002;7.788;2023-03-18T07:55:40;98637.47;;;14.59;77.00
5595;BME280;1003;48.002;7.788;2023-03-18T07:58:07;98633.00;;;14.89;75.84
5595;BME280;1003;48.002;7.788;2023-03-18T08:00:34;98638.31;;;15.05;71.70
5595;BME280;1003;48.002;7.788;2023-03-18T08:03:01;98634.75;;;15.33;71.99
5595;BME280;1003;48.002;7.788;2023-03-18T08:05:28;98634.56;;;15.37;70.81
5595;BME280;1003;48.002;7.788;2023-03-18T08:07:57;98635.63;;;15.10;67.54
5595;BME280;1003;48.002;7.788;2023-03-18T08:10:27;98632.97;;;15.13;67.91
5595;BME280;1003;48.002;7.788;2023-03-18T08:12:54;98631.53;;;15.06;66.42
5595;BME280;1003;48.002;7.788;2023-03-18T08:15:22;98635.19;;;14.99;65.15
5595;BME280;1003;48.002;7.788;2023-03-18T08:17:50;98632.25;;;15.09;66.32
5595;BME280;1003;48.002;7.788;2023-03-18T08:20:18;98636.13;;;15.41;67.08
5595;BME280;1003;48.002;7.788;2023-03-18T08:22:46;98638.94;;;15.56;66.13
5595;BME280;1003;48.002;7.788;2023-03-18T08:25:16;98633.50;;;15.66;66.10
5595;BME280;1003;48.002;7.788;2023-03-18T08:27:43;98638.88;;;15.57;66.11
5595;BME280;1003;48.002;7.788;2023-03-18T08:30:12;98643.22;;;15.54;65.56
5595;BME280;1003;48.002;7.788;2023-03-18T08:32:39;98651.59;;;15.56;70.45
5595;BME280;1003;48.002;7.788;2023-03-18T08:35:08;98642.06;;;15.62;69.78
5595;BME280;1003;48.002;7.788;2023-03-18T08:37:36;98646.75;;;15.49;65.99
5595;BME280;1003;48.002;7.788;2023-03-18T08:40:04;98643.19;;;15.77;66.65
5595;BME280;1003;48.002;7.788;2023-03-18T08:42:32;98641.03;;;16.09;64.60
5595;BME280;1003;48.002;7.788;2023-03-18T08:44:59;98639.38;;;16.48;65.36
5595;BME280;1003;48.002;7.788;2023-03-18T08:47:26;98641.50;;;16.78;59.97
5595;BME280;1003;48.002;7.788;2023-03-18T08:49:54;98631.34;;;17.16;59.22
5595;BME280;1003;48.002;7.788;2023-03-18T08:52:21;98633.88;;;17.35;57.88
5595;BME280;1003;48.002;7.788;2023-03-18T08:54:48;98640.53;;;17.37;56.43
5595;BME280;1003;48.002;7.788;2023-03-18T08:57:15;98633.41;;;17.26;52.97
5595;BME280;1003;48.002;7.788;2023-03-18T08:59:44;98639.28;;;17.27;53.81
5595;BME280;1003;48.002;7.788;2023-03-18T09:02:14;98642.13;;;17.21;53.76
5595;BME280;1003;48.002;7.788;2023-03-18T09:04:44;98639.25;;;17.10;55.44
5595;BME280;1003;48.002;7.788;2023-03-18T09:07:12;98633.09;;;16.96;55.49
5595;BME280;1003;48.002;7.788;2023-03-18T09:09:40;98628.34;;;17.08;55.66
5595;BME280;1003;48.002;7.788;2023-03-18T09:12:08;98629.63;;;17.35;56.43
5595;BME280;1003;48.002;7.788;2023-03-18T09:14:36;98627.72;;;17.57;56.38
5595;BME280;1003;48.002;7.788;2023-03-18T09:17:06;98630.84;;;17.45;55.50
5595;BME280;1003;48.002;7.788;2023-03-18T09:19:34;98616.75;;;17.74;55.36
5595;BME280;1003;48.002;7.788;2023-03-18T09:22:02;98624.53;;;17.71;55.87
5595;BME280;1003;48.002;7.788;2023-03-18T09:24:29;98623.50;;;17.93;56.74
5595;BME280;1003;48.002;7.788;2023-03-18T09:26:56;98617.75;;;17.89;54.44
5595;BME280;1003;48.002;7.788;2023-03-18T09:29:24;98623.69;;;17.71;52.68
5595;BME280;1003;48.002;7.788;2023-03-18T09:31:52;98624.81;;;17.29;53.34
5595;BME280;1003;48.002;7.788;2023-03-18T09:34:21;98613.28;;;17.22;53.16
5595;BME280;1003;48.002;7.788;2023-03-18T09:36:48;98623.63;;;17.36;51.48
5595;BME280;1003;48.002;7.788;2023-03-18T09:39:18;98618.06;;;17.47;51.37
5595;BME280;1003;48.002;7.788;2023-03-18T09:41:58;98616.09;;;17.35;51.54
5595;BME280;1003;48.002;7.788;2023-03-18T09:44:31;98609.38;;;17.15;50.67
5595;BME280;1003;48.002;7.788;2023-03-18T09:47:18;98615.91;;;17.56;54.23
5595;BME280;1003;48.002;7.788;2023-03-18T09:50:06;98601.50;;;17.92;50.52
5595;BME280;1003;48.002;7.788;2023-03-18T09:52:43;98602.38;;;18.08;49.76
5595;BME280;1003;48.002;7.788;2023-03-18T09:55:23;98604.00;;;17.93;50.14
5595;BME280;1003;48.002;7.788;2023-03-18T09:57:56;98605.16;;;17.69;48.41
5595;BME280;1003;48.002;7.788;2023-03-18T10:00:31;98605.34;;;17.47;49.28
5595;BME280;1003;48.002;7.788;2023-03-18T10:03:03;98606.28;;;17.27;49.74
5595;BME280;1003;48.002;7.788;2023-03-18T10:05:39;98606.56;;;17.21;52.07
5595;BME280;1003;48.002;7.788;2023-03-18T10:08:16;98605.06;;;17.53;55.13
5595;BME280;1003;48.002;7.788;2023-03-18T10:10:47;98599.16;;;17.70;53.14
5595;BME280;1003;48.002;7.788;2023-03-18T10:13:21;98602.00;;;17.64;53.90
5595;BME280;1003;48.002;7.788;2023-03-18T10:15:54;98604.75;;;17.59;51.65
5595;BME280;1003;48.002;7.788;2023-03-18T10:18:28;98599.44;;;17.46;50.17
5595;BME280;1003;48.002;7.788;2023-03-18T10:21:17;98586.91;;;17.61;52.40
5595;BME280;1003;48.002;7.788;2023-03-18T10:23:54;98602.69;;;17.67;53.86
5595;BME280;1003;48.002;7.788;2023-03-18T10:26:32;98596.69;;;17.34;48.29
5595;BME280;1003;48.002;7.788;2023-03-18T10:29:20;98594.28;;;17.48;47.51
5595;BME280;1003;48.002;7.788;2023-03-18T10:32:04;98600.47;;;17.25;48.01
5595;BME280;1003;48.002;7.788;2023-03-18T10:34:45;98601.53;;;17.38;49.42
5595;BME280;1003;48.002;7.788;2023-03-18T10:37:33;98598.03;;;17.22;50.84
5595;BME280;1003;48.002;7.788;2023-03-18T10:40:12;98594.94;;;17.34;48.99
5595;BME280;1003;48.002;7.788;2023-03-18T10:42:41;98588.84;;;17.55;51.10
5595;BME280;1003;48.002;7.788;2023-03-18T10:45:21;98586.75;;;17.46;50.40
5595;BME280;1003;48.002;7.788;2023-03-18T10:47:59;98583.59;;;17.58;50.17
5595;BME280;1003;48.002;7.788;2023-03-18T10:50:36;98587.47;;;17.31;50.71
5595;BME280;1003;48.002;7.788;2023-03-18T10:53:17;98573.56;;;17.21;54.35
5595;BME280;1003;48.002;7.788;2023-03-18T10:55:56;98584.84;;;17.32;52.76
5595;BME280;1003;48.002;7.788;2023-03-18T10:58:27;98581.06;;;17.58;53.83
5595;BME280;1003;48.002;7.788;2023-03-18T11:00:55;98574.84;;;17.83;57.20
5595;BME280;1003;48.002;7.788;2023-03-18T11:03:26;98573.72;;;17.35;50.95
5595;BME280;1003;48.002;7.788;2023-03-18T11:05:56;98578.78;;;17.71;52.09
5595;BME280;1003;48.002;7.788;2023-03-18T11:08:34;98564.31;;;18.06;54.37
5595;BME280;1003;48.002;7.788;2023-03-18T11:11:21;98562.13;;;18.49;52.36
5595;BME280;1003;48.002;7.788;2023-03-18T11:13:54;98572.03;;;18.87;50.35
5595;BME280;1003;48.002;7.788;2023-03-18T11:16:30;98569.88;;;19.27;49.85
5595;BME280;1003;48.002;7.788;2023-03-18T11:19:05;98568.59;;;19.50;48.78
5595;BME280;1003;48.002;7.788;2023-03-18T11:21:34;98561.69;;;19.36;47.71
5595;BME280;1003;48.002;7.788;2023-03-18T11:24:23;98560.59;;;19.86;46.76
5595;BME280;1003;48.002;7.788;2023-03-18T11:27:01;98558.25;;;19.97;47.40
5595;BME280;1003;48.002;7.788;2023-03-18T11:29:32;98561.69;;;19.96;46.24
5595;BME280;1003;48.002;7.788;2023-03-18T11:32:01;98557.31;;;19.84;47.17
5595;BME280;1003;48.002;7.788;2023-03-18T11:34:31;98559.31;;;19.93;47.26
5595;BME280;1003;48.002;7.788;2023-03-18T11:37:03;98553.38;;;19.78;45.50
5595;BME280;1003;48.002;7.788;2023-03-18T11:39:35;98545.84;;;19.91;48.62
5595;BME280;1003;48.002;7.788;2023-03-18T11:42:18;98541.19;;;19.83;49.53
5595;BME280;1003;48.002;7.788;2023-03-18T11:44:47;98544.06;;;19.47;47.62
5595;BME280;1003;48.002;7.788;2023-03-18T11:47:25;98534.69;;;19.63;47.58
5595;BME280;1003;48.002;7.788;2023-03-18T11:49:54;98538.69;;;19.37;45.07
5595;BME280;1003;48.002;7.788;2023-03-18T11:52:32;98534.97;;;19.59;44.34
5595;BME280;1003;48.002;7.788;2023-03-18T11:55:16;98533.34;;;19.72;45.14
5595;BME280;1003;48.002;7.788;2023-03-18T11:58:45;98527.72;;;19.51;45.99
5595;BME280;1003;48.002;7.788;2023-03-18T12:01:26;98530.50;;;19.62;45.65
5595;BME280;1003;48.002;7.788;2023-03-18T12:07:24;98525.72;;;19.86;43.83
5595;BME280;1003;48.002;7.788;2023-03-18T12:10:05;98527.28;;;20.03;43.78
5595;BME280;1003;48.002;7.788;2023-03-18T12:12:53;98527.63;;;19.53;43.17
5595;BME280;1003;48.002;7.788;2023-03-18T12:15:39;98529.41;;;19.66;43.38
5595;BME280;1003;48.002;7.788;2023-03-18T12:18:33;98524.84;;;19.41;46.30
5595;BME280;1003;48.002;7.788;2023-03-18T12:21:27;98521.50;;;19.41;44.37
5595;BME280;1003;48.002;7.788;2023-03-18T12:24:21;98512.78;;;19.75;45.54
5595;BME280;1003;48.002;7.788;2023-03-18T12:27:01;98510.88;;;19.93;44.27
5595;BME280;1003;48.002;7.788;2023-03-18T12:30:01;98507.31;;;20.24;42.85
5595;BME280;1003;48.002;7.788;2023-03-18T12:32:39;98512.38;;;20.38;43.76
5595;BME280;1003;48.002;7.788;2023-03-18T12:35:33;98511.19;;;20.58;41.47
5595;BME280;1003;48.002;7.788;2023-03-18T12:38:44;98504.38;;;20.86;43.78
5595;BME280;1003;48.002;7.788;2023-03-18T12:41:23;98496.84;;;20.97;44.43
5595;BME280;1003;48.002;7.788;2023-03-18T12:44:15;98502.75;;;20.97;42.55
5595;BME280;1003;48.002;7.788;2023-03-18T12:46:54;98504.59;;;20.13;42.90
5595;BME280;1003;48.002;7.788;2023-03-18T12:49:31;98498.19;;;20.76;44.12
5595;BME280;1003;48.002;7.788;2023-03-18T12:52:06;98503.06;;;20.93;44.39
5595;BME280;1003;48.002;7.788;2023-03-18T12:54:42;98505.28;;;21.12;44.00
5595;BME280;1003;48.002;7.788;2023-03-18T12:57:19;98498.94;;;21.05;44.54
5595;BME280;1003;48.002;7.788;2023-03-18T12:59:56;98493.13;;;21.15;47.94
5595;BME280;1003;48.002;7.788;2023-03-18T13:02:42;98494.69;;;20.91;46.70
5595;BME280;1003;48.002;7.788;2023-03-18T13:05:31;98491.28;;;20.78;46.20
5595;BME280;1003;48.002;7.788;2023-03-18T13:08:58;98491.72;;;20.29;46.82
5595;BME280;1003;48.002;7.788;2023-03-18T13:11:50;98485.50;;;20.47;45.12
5595;BME280;1003;48.002;7.788;2023-03-18T13:14:27;98484.25;;;20.26;47.29
5595;BME280;1003;48.002;7.788;2023-03-18T13:16:58;98492.44;;;20.31;49.90
5595;BME280;1003;48.002;7.788;2023-03-18T13:19:28;98487.78;;;20.79;45.28
5595;BME280;1003;48.002;7.788;2023-03-18T13:22:07;98483.22;;;21.23;42.76
5595;BME280;1003;48.002;7.788;2023-03-18T13:24:59;98493.84;;;20.63;43.40
5595;BME280;1003;48.002;7.788;2023-03-18T13:27:53;98485.00;;;21.09;43.23
5595;BME280;1003;48.002;7.788;2023-03-18T13:30:32;98481.28;;;20.87;46.02
5595;BME280;1003;48.002;7.788;2023-03-18T13:33:31;98474.94;;;20.93;46.36
5595;BME280;1003;48.002;7.788;2023-03-18T13:36:44;98481.06;;;21.17;44.91
5595;BME280;1003;48.002;7.788;2023-03-18T13:39:25;98470.91;;;20.76;48.87
5595;BME280;1003;48.002;7.788;2023-03-18T13:42:21;98472.16;;;21.10;43.42
5595;BME280;1003;48.002;7.788;2023-03-18T13:44:57;98475.03;;;20.79;42.42